Detall de PIREP

Printer-friendly versionPDF version

[2014/05/10 18:31:00]
Flight IATA:CT1061
Pilot Number:012
Company ICAO:CAT
Aircraft Type:B763/F
PAX:263
Departing Airport: LEAL
Destination Airport: LICJ
Alternate Airport:LIRN
Online: VATSIM
Route:MITOS UN851 PTC UM871 ETOIL UM871 XATOS UM871 KAPIL
Flight Level:F350
No Slew and time accel
No pause
Crash detect
Detect pilot in Cockpit between each 30 and 45 minutes
18:31 Zero fuel Weight: 247241 Lbs, Fuel Weight: 40088 Lbs
18:31 VATSIM:LEAL 101800Z 19004KT 160V240 CAVOK 22/12 Q1017 NOSIG
18:31 VATSIM:LICJ 101750Z 05011KT CAVOK 19/15 Q1017
18:31 ALMOGÀVERS ROUTE
18:31 Parking Brakes off
18:34 Take-off
18:34 Take off Weight: 286305 Lbs
18:34 Wind: 197º @ 004 Knots Heading: 101º
18:34 POS N38º 16´ 56´´ W000º 33´ 33´´
18:34 Gear Up: 168 Knots
18:34 Flaps:2 at 169 Knots
18:35 Flaps:1 at 199 Knots
18:35 Flaps:0 at 219 Knots
18:46 TOC
18:46 Fuel Weight: 33478 Lb
18:49 Wind:310º@037 Knots Heading: 064º Ground Speed: 488 Knots Altitude 35118 ft
19:04 Wind:313º@037 Knots Heading: 077º Ground Speed: 492 Knots Altitude 35111 ft
19:19 Wind:319º@036 Knots Heading: 081º Ground Speed: 489 Knots Altitude 35108 ft
19:34 Wind:334º@039 Knots Heading: 114º Ground Speed: 499 Knots Altitude 35101 ft
19:43 TOD
19:43 Fuel Weight: 24374 Lb
19:49 Wind:332º@024 Knots Heading: 109º Ground Speed: 444 Knots Altitude 22536 ft
19:55 Flaps:1 at 256 Knots
20:00 Flaps:2 at 235 Knots
20:01 Flaps:3 at 211 Knots
20:02 Flaps:4 at 180 Knots
20:02 Gear Down: 175 Knots
20:02 Flaps:5 at 150 Knots
20:02 Flaps:6 at 130 Knots
20:04 Wind:080º@003 Knots Heading: 067º Ground Speed: 132 Knots Altitude 567 ft
20:04 TouchDown:Rate -281 ft/min Speed: 120 Knots
20:05 VATSIM:LICJ 101950Z 24005KT CAVOK 18/15 Q1018
20:05 Land
20:05 Wind:087º@003 Knots
20:05 Heading: 068º
20:05 Flight Duration: 01:31
20:05 Landing Weight: 269750 Lbs
20:05 POS N38º 10´ 46´´ E013º 06´ 06´´
20:07 Parking brakes on
20:07 Block to Block Duration: 01:36
20:07 Final Fuel: 22195 Lbls
20:07 Spent Fuel: 17892 Lbls
20:07 Flight Length: 670 NM
20:07 TOD Land Length: 121 NM

Exportar CSV

Powered by Drupal - Modified by Danger4k